createdAt,value
2024-02-28T00:00:48.333Z,7.80
2024-02-28T00:03:17.849Z,7.60
2024-02-28T00:05:46.876Z,7.50
2024-02-28T00:08:15.066Z,7.50
2024-02-28T00:10:43.206Z,7.40
2024-02-28T00:13:11.253Z,7.60
2024-02-28T00:15:39.604Z,7.40
2024-02-28T00:18:08.489Z,7.30
2024-02-28T00:20:37.820Z,7.30
2024-02-28T00:23:05.942Z,7.20
2024-02-28T00:25:33.975Z,7.20
2024-02-28T00:28:01.956Z,7.20
2024-02-28T00:30:30.552Z,7.10
2024-02-28T00:32:58.587Z,7.10
2024-02-28T00:35:26.925Z,6.90
2024-02-28T00:37:56.261Z,6.90
2024-02-28T00:40:25.951Z,7.00
2024-02-28T00:42:54.303Z,7.10
2024-02-28T00:45:22.541Z,7.10
2024-02-28T00:47:50.690Z,7.20
2024-02-28T00:50:18.973Z,7.10
2024-02-28T00:52:47.063Z,7.10
2024-02-28T00:55:16.474Z,6.90
2024-02-28T00:57:44.774Z,6.90
2024-02-28T01:00:14.080Z,6.80
2024-02-28T01:02:43.470Z,6.80
2024-02-28T01:05:11.587Z,6.70
2024-02-28T01:07:39.618Z,6.70
2024-02-28T01:10:09.555Z,6.70
2024-02-28T01:12:39.294Z,6.80
2024-02-28T01:15:08.492Z,6.80
2024-02-28T01:17:36.569Z,6.80
2024-02-28T01:20:04.980Z,6.80
2024-02-28T01:22:32.996Z,6.70
2024-02-28T01:25:01.062Z,6.80
2024-02-28T01:27:29.142Z,6.80
2024-02-28T01:29:58.562Z,6.90
2024-02-28T01:32:26.767Z,6.90
2024-02-28T01:34:54.886Z,6.90
2024-02-28T01:37:23.007Z,6.80
2024-02-28T01:39:51.158Z,6.80
2024-02-28T01:42:19.285Z,6.80
2024-02-28T01:44:50.749Z,6.80
2024-02-28T01:47:21.374Z,6.90
2024-02-28T01:49:52.155Z,7.00
2024-02-28T01:52:20.329Z,7.00
2024-02-28T01:54:48.564Z,6.90
2024-02-28T01:57:17.656Z,6.90
2024-02-28T01:59:46.371Z,6.90
2024-02-28T02:02:14.352Z,6.90
2024-02-28T02:04:43.839Z,6.90
2024-02-28T02:07:11.891Z,6.90
2024-02-28T02:09:40.332Z,7.00
2024-02-28T02:12:09.141Z,7.00
2024-02-28T02:14:37.222Z,7.00
2024-02-28T02:17:05.279Z,7.10
2024-02-28T02:19:33.424Z,7.20
2024-02-28T02:22:08.241Z,7.00
2024-02-28T02:24:37.698Z,7.00
2024-02-28T02:27:06.043Z,7.00
2024-02-28T02:29:34.023Z,7.00
2024-02-28T02:32:02.103Z,7.00
2024-02-28T02:34:30.110Z,7.00
2024-02-28T02:36:58.144Z,7.10
2024-02-28T02:39:26.234Z,7.00
2024-02-28T02:41:55.643Z,7.10
2024-02-28T02:44:23.877Z,7.10
2024-02-28T02:46:51.885Z,7.00
2024-02-28T02:49:20.279Z,7.00
2024-02-28T02:51:48.322Z,7.00
2024-02-28T02:54:16.340Z,7.00
2024-02-28T02:56:44.907Z,6.90
2024-02-28T02:59:14.280Z,7.00
2024-02-28T03:01:42.482Z,6.80
2024-02-28T03:04:10.621Z,6.80
2024-02-28T03:06:38.693Z,6.80
2024-02-28T03:09:08.769Z,6.80
2024-02-28T03:11:37.092Z,6.80
2024-02-28T03:14:05.154Z,6.80
2024-02-28T03:16:38.750Z,6.80
2024-02-28T03:19:07.369Z,6.80
2024-02-28T03:21:35.497Z,6.80
2024-02-28T03:24:03.576Z,6.80
2024-02-28T03:26:31.696Z,6.80
2024-02-28T03:29:00.147Z,6.80
2024-02-28T03:31:28.303Z,6.80
2024-02-28T03:33:57.898Z,6.90
2024-02-28T03:36:26.087Z,6.90
2024-02-28T03:38:54.200Z,7.00
2024-02-28T03:41:22.220Z,7.00
2024-02-28T03:43:50.261Z,7.10
2024-02-28T03:46:18.252Z,7.00
2024-02-28T03:48:46.349Z,7.00
2024-02-28T03:51:15.856Z,6.90
2024-02-28T03:53:43.939Z,6.80
2024-02-28T03:56:12.704Z,6.90
2024-02-28T03:58:42.103Z,6.90
2024-02-28T04:01:10.188Z,7.00
2024-02-28T04:03:38.304Z,7.00
2024-02-28T04:06:06.497Z,7.00
2024-02-28T04:08:35.894Z,7.10
2024-02-28T04:11:04.010Z,7.00
2024-02-28T04:13:32.051Z,7.00
2024-02-28T04:16:00.213Z,7.00
2024-02-28T04:18:28.416Z,7.10
2024-02-28T04:20:56.427Z,7.10
2024-02-28T04:23:24.495Z,7.10
2024-02-28T04:25:53.830Z,7.10
2024-02-28T04:28:22.597Z,7.10
2024-02-28T04:30:51.013Z,7.10
2024-02-28T04:33:19.477Z,7.20
2024-02-28T04:35:47.642Z,7.20
2024-02-28T04:38:16.142Z,7.20
2024-02-28T04:40:44.160Z,7.30
2024-02-28T04:43:13.607Z,7.30
2024-02-28T04:45:41.594Z,7.20
2024-02-28T04:48:09.845Z,7.30
2024-02-28T04:50:37.875Z,7.20
2024-02-28T04:53:06.067Z,7.20
2024-02-28T04:55:34.091Z,7.30
2024-02-28T04:58:02.192Z,7.30
2024-02-28T05:00:31.777Z,7.20
2024-02-28T05:02:59.852Z,7.20
2024-02-28T05:05:27.984Z,7.20
2024-02-28T05:07:56.237Z,7.30
2024-02-28T05:10:24.372Z,7.30
2024-02-28T05:12:52.531Z,7.30
2024-02-28T05:15:21.129Z,7.30
2024-02-28T05:17:52.730Z,7.30
2024-02-28T05:20:20.771Z,7.40
2024-02-28T05:22:48.862Z,7.40
2024-02-28T05:25:17.040Z,7.50
2024-02-28T05:27:45.071Z,7.60
2024-02-28T05:30:14.204Z,7.60
2024-02-28T05:32:42.637Z,7.50
2024-02-28T05:35:12.720Z,7.50
2024-02-28T05:37:40.741Z,7.50
2024-02-28T05:40:10.741Z,7.50
2024-02-28T05:42:38.955Z,7.50
2024-02-28T05:45:07.736Z,7.50
2024-02-28T05:47:35.814Z,7.50
2024-02-28T05:50:03.946Z,7.40
2024-02-28T05:52:33.382Z,7.50
2024-02-28T05:55:02.022Z,7.50
2024-02-28T05:57:30.095Z,7.50
2024-02-28T05:59:58.062Z,7.50
2024-02-28T06:02:26.402Z,7.50
2024-02-28T06:04:54.701Z,7.50
2024-02-28T06:07:22.680Z,7.40
2024-02-28T06:09:51.987Z,7.30
2024-02-28T06:12:20.047Z,7.30
2024-02-28T06:14:48.358Z,7.20
2024-02-28T06:17:16.364Z,7.20
2024-02-28T06:19:44.359Z,7.30
2024-02-28T06:22:12.463Z,7.30
2024-02-28T06:24:40.509Z,7.30
2024-02-28T06:27:13.730Z,7.30
2024-02-28T06:29:42.022Z,7.40
2024-02-28T06:32:10.331Z,7.40
2024-02-28T06:34:38.397Z,7.40
2024-02-28T06:37:06.570Z,7.40
2024-02-28T06:39:34.576Z,7.40
2024-02-28T06:42:02.705Z,7.40
2024-02-28T06:44:32.054Z,7.50
2024-02-28T06:47:00.071Z,7.40
2024-02-28T06:49:28.588Z,7.40
2024-02-28T06:51:59.789Z,7.50
2024-02-28T06:54:27.931Z,7.50
2024-02-28T06:56:56.295Z,7.50
2024-02-28T06:59:24.371Z,7.40
2024-02-28T07:01:53.908Z,7.40
2024-02-28T07:04:22.123Z,7.50
2024-02-28T07:06:50.193Z,7.50
2024-02-28T07:09:18.322Z,7.50
2024-02-28T07:11:46.396Z,7.60
2024-02-28T07:14:16.862Z,7.60
2024-02-28T07:16:45.296Z,7.60
2024-02-28T07:19:15.308Z,7.60
2024-02-28T07:21:43.603Z,7.60
2024-02-28T07:24:11.820Z,7.60
2024-02-28T07:26:41.713Z,7.50
2024-02-28T07:29:09.971Z,7.50
2024-02-28T07:31:38.192Z,7.60
2024-02-28T07:34:06.406Z,7.60
2024-02-28T07:36:36.362Z,7.60
2024-02-28T07:39:05.507Z,7.60
2024-02-28T07:41:34.064Z,7.60
2024-02-28T07:44:02.384Z,7.60
2024-02-28T07:46:30.953Z,7.70
2024-02-28T07:48:59.709Z,7.70
2024-02-28T07:51:28.089Z,7.80
2024-02-28T07:53:57.698Z,7.90
2024-02-28T07:56:25.820Z,7.90
2024-02-28T07:58:54.006Z,8.00
2024-02-28T08:01:23.821Z,8.20
2024-02-28T08:03:52.154Z,8.00
2024-02-28T08:06:20.298Z,8.00
2024-02-28T08:08:48.394Z,8.00
2024-02-28T08:11:18.157Z,8.00
2024-02-28T08:13:46.472Z,8.00
2024-02-28T08:16:14.644Z,8.00
2024-02-28T08:18:43.118Z,8.00
2024-02-28T08:21:11.645Z,8.20
2024-02-28T08:23:39.955Z,8.00
2024-02-28T08:26:08.187Z,8.00
2024-02-28T08:28:37.622Z,8.10
2024-02-28T08:31:06.054Z,8.10
2024-02-28T08:33:34.384Z,8.10
2024-02-28T08:36:02.523Z,8.20
2024-02-28T08:38:30.649Z,8.40
2024-02-28T08:40:58.628Z,8.20
2024-02-28T08:43:27.323Z,8.10
2024-02-28T08:45:57.275Z,8.10
2024-02-28T08:48:25.372Z,8.10
2024-02-28T08:50:53.391Z,8.20
2024-02-28T08:53:21.395Z,8.20
2024-02-28T08:55:49.374Z,8.20
2024-02-28T08:58:17.432Z,8.30
2024-02-28T09:00:45.618Z,8.20
2024-02-28T09:03:14.999Z,8.20
2024-02-28T09:05:43.121Z,8.20
2024-02-28T09:08:14.239Z,8.20
2024-02-28T09:10:43.382Z,8.20
2024-02-28T09:13:13.624Z,8.30
2024-02-28T09:15:41.765Z,8.30
2024-02-28T09:18:10.300Z,8.30
2024-02-28T09:20:39.792Z,8.30
2024-02-28T09:23:08.174Z,8.40
2024-02-28T09:25:36.760Z,8.40
2024-02-28T09:28:04.985Z,8.40
2024-02-28T09:30:40.067Z,8.40
2024-02-28T09:33:14.589Z,8.40
2024-02-28T09:35:44.325Z,8.50
2024-02-28T09:38:13.058Z,8.50
2024-02-28T09:40:41.189Z,8.50
2024-02-28T09:43:13.969Z,8.50
2024-02-28T09:45:44.533Z,8.50
2024-02-28T09:48:14.325Z,8.50
2024-02-28T09:50:44.533Z,8.50
2024-02-28T09:53:12.742Z,8.60
2024-02-28T09:55:40.892Z,8.60
2024-02-28T09:58:11.031Z,8.60
2024-02-28T10:00:40.272Z,8.70
2024-02-28T10:03:09.632Z,8.70
2024-02-28T10:05:37.893Z,8.70
2024-02-28T10:08:10.176Z,8.60
2024-02-28T10:10:39.863Z,8.60
2024-02-28T10:13:10.077Z,8.80
2024-02-28T10:15:38.634Z,8.60
2024-02-28T10:18:12.228Z,8.80
2024-02-28T10:20:46.208Z,8.80
2024-02-28T10:23:16.788Z,8.90
2024-02-28T10:25:55.804Z,8.90
2024-02-28T10:28:27.021Z,8.80
2024-02-28T10:30:56.138Z,8.90
2024-02-28T10:33:24.381Z,8.90
2024-02-28T10:35:54.123Z,8.90
2024-02-28T10:38:23.608Z,8.90
2024-02-28T10:40:53.429Z,8.90
2024-02-28T10:43:22.597Z,8.90
2024-02-28T10:46:08.034Z,8.90
2024-02-28T10:48:40.292Z,8.90
2024-02-28T10:51:08.455Z,8.90
2024-02-28T10:53:40.120Z,9.00
2024-02-28T10:56:11.719Z,8.90
2024-02-28T10:58:49.182Z,8.90
2024-02-28T11:01:17.540Z,8.80
2024-02-28T11:03:46.433Z,8.90
2024-02-28T11:06:20.638Z,8.90
2024-02-28T11:08:54.251Z,8.90
2024-02-28T11:11:22.956Z,8.90
2024-02-28T11:13:55.028Z,8.90
2024-02-28T11:16:29.868Z,9.00
2024-02-28T11:18:58.400Z,9.10
2024-02-28T11:21:27.997Z,9.00
2024-02-28T11:24:01.628Z,9.00
2024-02-28T11:26:31.516Z,9.00
2024-02-28T11:28:59.691Z,9.10
2024-02-28T11:31:27.708Z,9.10
2024-02-28T11:33:55.727Z,9.10
2024-02-28T11:36:24.819Z,9.00
2024-02-28T11:38:52.876Z,9.10
2024-02-28T11:41:29.771Z,9.10
2024-02-28T11:43:57.729Z,9.00
2024-02-28T11:46:26.287Z,9.00
2024-02-28T11:48:55.991Z,9.00
2024-02-28T11:52:00.138Z,9.00
2024-02-28T11:54:28.804Z,9.10
2024-02-28T11:57:00.390Z,9.10
2024-02-28T11:59:28.600Z,9.00
2024-02-28T12:01:57.270Z,9.10
2024-02-28T12:04:27.286Z,9.30
2024-02-28T12:06:55.442Z,9.10
2024-02-28T12:09:28.172Z,9.20
2024-02-28T12:12:05.067Z,9.20
2024-02-28T12:14:34.514Z,9.20
2024-02-28T12:17:03.654Z,9.10
2024-02-28T12:19:31.892Z,9.10
2024-02-28T12:22:00.699Z,9.20
2024-02-28T12:24:29.260Z,9.20
2024-02-28T12:26:57.272Z,9.20
2024-02-28T12:29:27.345Z,9.20
2024-02-28T12:31:55.442Z,9.10
2024-02-28T12:34:23.872Z,9.10
2024-02-28T12:36:51.874Z,9.20
2024-02-28T12:39:20.014Z,9.20
2024-02-28T12:41:49.604Z,9.20
2024-02-28T12:44:17.683Z,9.30
2024-02-28T12:46:47.385Z,9.20
2024-02-28T12:49:15.500Z,9.20
2024-02-28T12:51:45.544Z,9.20
2024-02-28T12:54:15.261Z,9.20
2024-02-28T12:56:44.536Z,9.20
2024-02-28T12:59:13.105Z,9.10
2024-02-28T13:01:41.456Z,9.10
2024-02-28T13:04:10.990Z,9.10
2024-02-28T13:06:39.047Z,9.10
2024-02-28T13:09:13.209Z,9.00
2024-02-28T13:11:41.743Z,9.10
2024-02-28T13:14:10.406Z,9.20
2024-02-28T13:16:39.382Z,9.00
2024-02-28T13:19:07.642Z,9.30
2024-02-28T13:21:38.310Z,9.00
2024-02-28T13:24:06.725Z,9.00
2024-02-28T13:26:34.836Z,9.00
2024-02-28T13:29:02.893Z,9.00
2024-02-28T13:31:30.918Z,9.10
2024-02-28T13:33:59.041Z,9.20
2024-02-28T13:36:27.163Z,9.20
2024-02-28T13:38:56.640Z,9.40
2024-02-28T13:41:24.633Z,9.20
2024-02-28T13:43:52.646Z,9.20
2024-02-28T13:46:21.107Z,9.20
2024-02-28T13:48:49.647Z,9.20
2024-02-28T13:51:19.992Z,9.20
2024-02-28T13:53:48.074Z,9.30
2024-02-28T13:56:17.430Z,9.40
2024-02-28T13:58:52.699Z,9.20
2024-02-28T14:01:22.349Z,9.10
2024-02-28T14:03:50.684Z,9.10
2024-02-28T14:06:18.844Z,9.20
2024-02-28T14:08:47.271Z,9.20
2024-02-28T14:11:18.776Z,9.20
2024-02-28T14:13:47.074Z,9.30
2024-02-28T14:16:15.324Z,9.30
2024-02-28T14:18:43.556Z,9.20
2024-02-28T14:21:11.963Z,9.20
2024-02-28T14:23:40.292Z,9.10
2024-02-28T14:26:08.465Z,8.90
2024-02-28T14:28:38.153Z,9.00
2024-02-28T14:31:07.857Z,8.90
2024-02-28T14:33:37.839Z,8.90
2024-02-28T14:36:07.317Z,9.00
2024-02-28T14:38:35.666Z,8.50
2024-02-28T14:41:05.298Z,8.60
2024-02-28T14:43:33.592Z,8.50
2024-02-28T14:46:03.214Z,8.50
2024-02-28T14:48:32.242Z,8.50
2024-02-28T14:51:01.064Z,8.50
2024-02-28T14:53:29.315Z,8.60
2024-02-28T14:55:57.967Z,8.60
2024-02-28T14:58:26.192Z,8.70
2024-02-28T15:00:55.541Z,8.70
2024-02-28T15:03:25.213Z,8.70
2024-02-28T15:05:53.363Z,8.90
2024-02-28T15:08:21.763Z,8.80
2024-02-28T15:10:50.092Z,8.90
2024-02-28T15:13:18.360Z,8.90
2024-02-28T15:15:46.574Z,9.00
2024-02-28T15:18:14.726Z,8.90
2024-02-28T15:20:44.555Z,8.90
2024-02-28T15:23:12.554Z,8.80
2024-02-28T15:25:40.603Z,8.80
2024-02-28T15:28:08.646Z,9.00
2024-02-28T15:30:36.715Z,8.80
2024-02-28T15:33:06.004Z,8.80
2024-02-28T15:35:35.876Z,8.80
2024-02-28T15:38:06.446Z,8.80
2024-02-28T15:40:34.472Z,8.80
2024-02-28T15:43:03.013Z,8.80
2024-02-28T15:45:31.488Z,8.90
2024-02-28T15:47:59.804Z,8.70
2024-02-28T15:50:27.878Z,8.80
2024-02-28T15:52:55.965Z,8.70
2024-02-28T15:55:25.365Z,8.70
2024-02-28T15:57:56.462Z,8.70
2024-02-28T16:00:24.756Z,8.70
2024-02-28T16:02:53.107Z,8.60
2024-02-28T16:05:25.064Z,8.60
2024-02-28T16:07:53.272Z,8.50
2024-02-28T16:10:21.751Z,8.50
2024-02-28T16:12:51.763Z,8.40
2024-02-28T16:15:20.477Z,8.40
2024-02-28T16:17:48.593Z,8.50
2024-02-28T16:20:17.446Z,8.50
2024-02-28T16:22:45.542Z,8.30
2024-02-28T16:25:13.853Z,8.30
2024-02-28T16:27:42.330Z,8.30
2024-02-28T16:30:12.528Z,8.30
2024-02-28T16:32:40.597Z,8.00
2024-02-28T16:35:10.159Z,8.00
2024-02-28T16:37:38.956Z,7.60
2024-02-28T16:40:09.605Z,7.50
2024-02-28T16:42:38.167Z,7.60
2024-02-28T16:45:07.545Z,7.70
2024-02-28T16:47:37.120Z,7.70
2024-02-28T16:50:05.896Z,7.70
2024-02-28T16:52:34.175Z,7.60
2024-02-28T16:55:02.377Z,7.60
2024-02-28T16:57:30.756Z,7.60
2024-02-28T16:59:59.827Z,7.70
2024-02-28T17:02:27.943Z,7.70
2024-02-28T17:04:57.413Z,7.70
2024-02-28T17:07:25.454Z,7.70
2024-02-28T17:09:53.928Z,7.80
2024-02-28T17:12:24.982Z,7.70
2024-02-28T17:14:52.997Z,7.70
2024-02-28T17:17:21.913Z,7.70
2024-02-28T17:19:57.959Z,7.70
2024-02-28T17:22:27.880Z,7.70
2024-02-28T17:24:56.001Z,7.70
2024-02-28T17:27:24.344Z,7.70
2024-02-28T17:29:52.523Z,7.80
2024-02-28T17:32:20.613Z,7.80
2024-02-28T17:34:52.421Z,7.90
2024-02-28T17:37:22.847Z,7.80
2024-02-28T17:39:54.062Z,7.80
2024-02-28T17:42:22.322Z,7.80
2024-02-28T17:44:51.376Z,7.80
2024-02-28T17:47:19.814Z,7.80
2024-02-28T17:49:48.498Z,7.70
2024-02-28T17:52:16.663Z,7.70
2024-02-28T17:54:44.753Z,7.70
2024-02-28T17:57:15.832Z,7.70
2024-02-28T17:59:44.309Z,7.70
2024-02-28T18:02:13.933Z,7.70
2024-02-28T18:04:41.928Z,7.70
2024-02-28T18:07:10.095Z,7.80
2024-02-28T18:09:39.390Z,7.80
2024-02-28T18:12:08.159Z,7.70
2024-02-28T18:14:39.227Z,7.80
2024-02-28T18:17:07.156Z,7.80
2024-02-28T18:19:35.788Z,7.80
2024-02-28T18:22:05.786Z,7.90
2024-02-28T18:24:33.944Z,7.90
2024-02-28T18:27:02.003Z,7.80
2024-02-28T18:29:30.225Z,7.80
2024-02-28T18:31:59.629Z,7.70
2024-02-28T18:34:27.767Z,7.80
2024-02-28T18:36:57.964Z,7.80
2024-02-28T18:39:26.789Z,7.80
2024-02-28T18:41:55.538Z,7.80
2024-02-28T18:44:23.835Z,7.90
2024-02-28T18:46:52.094Z,7.80
2024-02-28T18:49:21.457Z,7.80
2024-02-28T18:51:49.796Z,7.70
2024-02-28T18:54:18.125Z,7.70
2024-02-28T18:56:46.308Z,7.80
2024-02-28T18:59:14.366Z,7.90
2024-02-28T19:01:42.566Z,7.70
2024-02-28T19:04:10.743Z,7.70
2024-02-28T19:06:40.574Z,7.80
2024-02-28T19:09:10.188Z,7.80
2024-02-28T19:11:38.768Z,7.70
2024-02-28T19:14:06.910Z,7.70
2024-02-28T19:16:34.913Z,7.60
2024-02-28T19:19:03.327Z,7.60
2024-02-28T19:21:32.090Z,7.70
2024-02-28T19:24:01.566Z,7.70
2024-02-28T19:26:31.424Z,7.70
2024-02-28T19:28:59.721Z,7.60
2024-02-28T19:31:27.705Z,7.60
2024-02-28T19:33:55.689Z,7.60
2024-02-28T19:36:23.711Z,7.60
2024-02-28T19:38:51.703Z,7.60
2024-02-28T19:41:21.081Z,7.60
2024-02-28T19:43:49.057Z,7.70
2024-02-28T19:46:17.048Z,7.80
2024-02-28T19:48:47.025Z,7.80
2024-02-28T19:51:17.525Z,7.70
2024-02-28T19:53:46.343Z,7.60
2024-02-28T19:56:15.707Z,7.60
2024-02-28T19:58:48.943Z,7.70
2024-02-28T20:01:17.273Z,7.60
2024-02-28T20:03:45.381Z,7.60
2024-02-28T20:06:13.475Z,7.50
2024-02-28T20:08:41.579Z,7.70
2024-02-28T20:11:09.900Z,7.70
2024-02-28T20:13:39.389Z,7.70
2024-02-28T20:16:09.403Z,7.80
2024-02-28T20:18:37.428Z,7.70
2024-02-28T20:21:14.352Z,7.60
2024-02-28T20:23:49.631Z,7.50
2024-02-28T20:26:18.049Z,7.60
2024-02-28T20:28:46.227Z,7.60
2024-02-28T20:31:17.066Z,7.50
2024-02-28T20:33:45.793Z,7.50
2024-02-28T20:36:14.476Z,7.50
2024-02-28T20:38:44.097Z,7.50
2024-02-28T20:41:12.330Z,7.40
2024-02-28T20:43:41.811Z,7.40
2024-02-28T20:46:10.297Z,7.40
2024-02-28T20:48:42.386Z,7.20
2024-02-28T20:51:13.779Z,7.10
2024-02-28T20:53:44.334Z,7.10
2024-02-28T20:56:13.610Z,7.00
2024-02-28T20:58:41.860Z,7.00
2024-02-28T21:01:10.022Z,6.90
2024-02-28T21:03:40.251Z,6.80
2024-02-28T21:06:08.590Z,6.70
2024-02-28T21:08:41.463Z,6.70
2024-02-28T21:11:10.094Z,6.60
2024-02-28T21:13:38.328Z,6.50
2024-02-28T21:16:06.811Z,6.50
2024-02-28T21:18:35.306Z,6.40
2024-02-28T21:21:06.079Z,6.20
2024-02-28T21:23:34.102Z,6.20
2024-02-28T21:26:02.180Z,6.20
2024-02-28T21:28:30.549Z,6.20
2024-02-28T21:30:59.913Z,6.20
2024-02-28T21:33:28.237Z,6.20
2024-02-28T21:35:57.417Z,6.20
2024-02-28T21:38:27.010Z,6.10
2024-02-28T21:40:55.134Z,6.00
2024-02-28T21:43:23.363Z,5.80
2024-02-28T21:45:52.463Z,5.80
2024-02-28T21:48:20.568Z,5.70
2024-02-28T21:50:48.834Z,5.60
2024-02-28T21:53:17.044Z,5.60
2024-02-28T21:55:46.445Z,5.60
2024-02-28T21:58:15.739Z,5.70
2024-02-28T22:00:44.177Z,5.80
2024-02-28T22:03:12.662Z,5.60
2024-02-28T22:05:39.854Z,5.40
2024-02-28T22:08:08.075Z,5.40
2024-02-28T22:10:36.147Z,5.30
2024-02-28T22:13:05.679Z,5.30
2024-02-28T22:15:33.948Z,5.20
2024-02-28T22:18:02.184Z,5.20
2024-02-28T22:20:30.291Z,5.20
2024-02-28T22:22:58.776Z,5.10
2024-02-28T22:25:26.807Z,5.10
2024-02-28T22:27:54.950Z,5.00
2024-02-28T22:30:26.526Z,5.00
2024-02-28T22:32:54.949Z,4.80
2024-02-28T22:35:23.044Z,4.80
2024-02-28T22:37:51.285Z,4.80
2024-02-28T22:40:19.625Z,4.80
2024-02-28T22:42:47.813Z,4.70
2024-02-28T22:45:15.914Z,4.70
2024-02-28T22:47:47.067Z,4.60
2024-02-28T22:50:15.984Z,4.60
2024-02-28T22:52:44.137Z,4.50
2024-02-28T22:55:12.977Z,4.50
2024-02-28T22:57:41.302Z,4.60
2024-02-28T23:00:30.459Z,4.50
2024-02-28T23:03:01.807Z,4.40
2024-02-28T23:05:30.254Z,4.40
2024-02-28T23:07:59.336Z,4.30
2024-02-28T23:10:27.786Z,4.20
2024-02-28T23:12:57.101Z,4.10
2024-02-28T23:15:25.945Z,4.10
2024-02-28T23:17:54.274Z,4.10
2024-02-28T23:20:28.809Z,4.20
2024-02-28T23:22:57.525Z,4.00
2024-02-28T23:25:25.529Z,3.80
2024-02-28T23:27:55.434Z,3.80
2024-02-28T23:30:23.982Z,3.70
2024-02-28T23:32:52.475Z,3.60
2024-02-28T23:35:20.569Z,3.60
2024-02-28T23:37:49.924Z,3.60
2024-02-28T23:40:17.259Z,3.50
2024-02-28T23:42:46.022Z,3.40
2024-02-28T23:45:14.141Z,3.30
2024-02-28T23:47:42.647Z,3.30
2024-02-28T23:50:11.134Z,3.40
2024-02-28T23:52:39.365Z,3.30
2024-02-28T23:55:09.501Z,3.30
2024-02-28T23:57:37.617Z,3.40
